Time;durP1;ratioP1;P1;durP2;ratioP2;P2;SDS_P1;SDS_P2;PMS_P1;PMS_P2;Temp;Humidity;BMP_temperature;BMP_pressure;BME280_temperature;BME280_humidity;BME280_pressure;Samples;Min_cycle;Max_cycle;Signal;HPM_P1;HPM_P2
2023/05/03 00:01:00;;;;;;;;;;;5.00;63.70;;;;;;4127658;28;19918;-85
2023/05/03 00:05:57;;;;;;;;;;;4.90;63.80;;;;;;4129994;28;20001;-85
2023/05/03 00:08:04;;;;;;;;;;;5.10;63.80;;;;;;4129271;28;19924;-85
2023/05/03 00:10:09;;;;;;;;;;;4.90;63.60;;;;;;4112151;28;19970;-85
2023/05/03 00:12:15;;;;;;;;;;;4.90;63.60;;;;;;4127655;28;19918;-84
2023/05/03 00:14:25;;;;;;;;;;;4.90;63.60;;;;;;4126187;28;19918;-86
2023/05/03 00:16:36;;;;;;;;;;;5.00;63.70;;;;;;4129879;28;19922;-84
2023/05/03 00:21:01;;;;;;;;;;;5.00;63.70;;;;;;4111206;28;20524;-86
2023/05/03 00:23:07;;;;;;;;;;;5.00;63.60;;;;;;4139713;28;19922;-86
2023/05/03 00:25:22;;;;;;;;;;;4.90;63.50;;;;;;4109910;28;19992;-85
2023/05/03 00:27:29;;;;;;;;;;;4.90;63.40;;;;;;4114427;28;20779;-85
2023/05/03 00:29:40;;;;;;;;;;;4.90;63.30;;;;;;4124885;28;19917;-85
2023/05/03 00:31:54;;;;;;;;;;;4.90;63.30;;;;;;4124271;28;19922;-85
2023/05/03 00:33:57;;;;;;;;;;;4.80;63.20;;;;;;4124567;28;20654;-86
2023/05/03 00:36:26;;;;;;;;;;;4.90;63.30;;;;;;4129832;28;19965;-86
2023/05/03 00:38:32;;;;;;;;;;;4.80;63.10;;;;;;4116068;28;19914;-85
2023/05/03 00:40:41;;;;;;;;;;;4.80;63.00;;;;;;4125730;28;19928;-85
2023/05/03 00:43:08;;;;;;;;;;;4.70;62.90;;;;;;4139721;28;20171;-85
2023/05/03 00:45:38;;;;;;;;;;;4.60;62.80;;;;;;4139372;28;20272;-86
2023/05/03 00:48:11;;;;;;;;;;;4.60;62.70;;;;;;4139329;28;19926;-85
2023/05/03 00:50:35;;;;;;;;;;;4.60;62.70;;;;;;4126838;28;20015;-85
2023/05/03 00:53:06;;;;;;;;;;;4.60;62.80;;;;;;4131397;28;19945;-87
2023/05/03 00:55:42;;;;;;;;;;;4.60;62.70;;;;;;4124139;28;19918;-85
2023/05/03 00:58:06;;;;;;;;;;;4.50;62.60;;;;;;4140679;28;19921;-85
2023/05/03 01:00:27;;;;;;;;;;;4.60;62.60;;;;;;4138708;28;19925;-86
2023/05/03 01:02:55;;;;;;;;;;;4.50;62.60;;;;;;4141647;28;19929;-85
2023/05/03 01:05:22;;;;;;;;;;;4.50;62.60;;;;;;4147850;28;20475;-85
2023/05/03 01:07:48;;;;;;;;;;;4.50;62.60;;;;;;4141813;28;19928;-84
2023/05/03 01:10:31;;;;;;;;;;;4.40;62.50;;;;;;4131413;28;19989;-85
2023/05/03 01:12:59;;;;;;;;;;;4.30;62.30;;;;;;4130172;28;19964;-84
2023/05/03 01:15:04;;;;;;;;;;;4.30;62.40;;;;;;4126540;28;19918;-85
2023/05/03 01:17:14;;;;;;;;;;;4.30;62.50;;;;;;4131611;28;20012;-85
2023/05/03 01:19:55;;;;;;;;;;;4.20;62.50;;;;;;4125837;28;19926;-84
2023/05/03 01:22:04;;;;;;;;;;;4.20;62.50;;;;;;4053476;29;19984;-87
2023/05/03 01:24:21;;;;;;;;;;;4.20;62.50;;;;;;4034378;29;19939;-85
2023/05/03 01:26:46;;;;;;;;;;;4.10;62.40;;;;;;4077972;29;20281;-86
2023/05/03 01:28:52;;;;;;;;;;;4.10;62.50;;;;;;4062791;29;20033;-85
2023/05/03 01:30:54;;;;;;;;;;;4.10;62.50;;;;;;4080079;29;19915;-84
2023/05/03 01:33:16;;;;;;;;;;;4.10;62.50;;;;;;4064784;29;19978;-85
2023/05/03 01:35:35;;;;;;;;;;;4.20;62.60;;;;;;4062911;29;19916;-85
2023/05/03 01:37:47;;;;;;;;;;;4.10;62.50;;;;;;4061349;29;19995;-85
2023/05/03 01:42:51;;;;;;;;;;;3.90;62.50;;;;;;4028577;29;19927;-85
2023/05/03 01:45:21;;;;;;;;;;;4.00;62.60;;;;;;4033369;29;19916;-86
2023/05/03 01:47:42;;;;;;;;;;;3.90;62.50;;;;;;4039246;29;19951;-85
2023/05/03 01:49:48;;;;;;;;;;;4.00;62.60;;;;;;4049614;29;19916;-84
2023/05/03 01:51:51;;;;;;;;;;;3.90;62.70;;;;;;4049517;29;20389;-84
2023/05/03 01:53:55;;;;;;;;;;;3.90;62.60;;;;;;4050808;29;19926;-84
2023/05/03 01:56:18;;;;;;;;;;;;;;;;;;;;;
2023/05/03 02:01:09;;;;;;;;;;;3.90;62.70;;;;;;4066122;29;19919;-85
2023/05/03 02:03:16;;;;;;;;;;;3.80;62.60;;;;;;4048373;29;19927;-84
2023/05/03 02:05:27;;;;;;;;;;;3.80;62.70;;;;;;4065126;29;19915;-84
2023/05/03 02:07:34;;;;;;;;;;;3.80;62.70;;;;;;4065923;29;19919;-85
2023/05/03 02:09:44;;;;;;;;;;;3.80;62.80;;;;;;4066701;29;19958;-84
2023/05/03 02:14:09;;;;;;;;;;;3.80;62.80;;;;;;4069647;29;19915;-85
2023/05/03 02:16:12;;;;;;;;;;;3.60;62.60;;;;;;4049924;29;19962;-84
2023/05/03 02:18:20;;;;;;;;;;;3.60;62.60;;;;;;4033844;29;20028;-85
2023/05/03 02:20:36;;;;;;;;;;;3.70;62.60;;;;;;4031385;29;20010;-85
2023/05/03 02:22:52;;;;;;;;;;;3.60;62.60;;;;;;4044275;29;20015;-84
2023/05/03 02:25:05;;;;;;;;;;;3.60;62.60;;;;;;4070295;29;20022;-86
2023/05/03 02:27:20;;;;;;;;;;;3.50;62.60;;;;;;4035185;29;19976;-85
2023/05/03 02:29:27;;;;;;;;;;;3.50;62.60;;;;;;4051736;29;19923;-85
2023/05/03 02:31:47;;;;;;;;;;;3.60;62.60;;;;;;4049664;29;19951;-86
2023/05/03 02:33:59;;;;;;;;;;;3.50;62.60;;;;;;4065212;29;19915;-85
2023/05/03 02:36:00;;;;;;;;;;;3.40;62.50;;;;;;4071190;28;20396;-84
2023/05/03 02:38:12;;;;;;;;;;;3.40;62.60;;;;;;4097093;29;20474;-85
2023/05/03 02:40:15;;;;;;;;;;;3.30;62.50;;;;;;4074606;28;19929;-84
2023/05/03 02:42:25;;;;;;;;;;;3.30;62.60;;;;;;4095356;28;19994;-84
2023/05/03 02:44:35;;;;;;;;;;;3.30;62.50;;;;;;4109535;28;20301;-84
2023/05/03 02:46:39;;;;;;;;;;;3.40;62.70;;;;;;4099623;23;19935;-83
2023/05/03 02:48:40;;;;;;;;;;;3.30;62.60;;;;;;4145940;28;19992;-83
2023/05/03 02:50:41;;;;;;;;;;;3.20;62.50;;;;;;4132523;28;20315;-83
2023/05/03 02:52:41;;;;;;;;;;;3.20;62.60;;;;;;4145930;28;19924;-84
2023/05/03 02:54:42;;;;;;;;;;;3.20;62.70;;;;;;4148857;28;19953;-83
2023/05/03 02:56:42;;;;;;;;;;;3.10;62.50;;;;;;4149007;28;20566;-82
2023/05/03 02:58:43;;;;;;;;;;;3.20;62.60;;;;;;4144449;28;19976;-82
2023/05/03 03:00:43;;;;;;;;;;;3.10;62.60;;;;;;4144665;28;20016;-83
2023/05/03 03:02:44;;;;;;;;;;;3.10;62.70;;;;;;4146219;28;20327;-83
2023/05/03 03:04:45;;;;;;;;;;;3.10;62.80;;;;;;4146212;28;19910;-83
2023/05/03 03:06:45;;;;;;;;;;;3.00;62.70;;;;;;4143761;28;19940;-83
2023/05/03 03:08:46;;;;;;;;;;;3.00;62.80;;;;;;4147032;28;19977;-84
2023/05/03 03:10:47;;;;;;;;;;;3.00;62.80;;;;;;4130707;28;19918;-84
2023/05/03 03:12:47;;;;;;;;;;;2.90;63.10;;;;;;4159854;28;19989;-84
2023/05/03 03:14:48;;;;;;;;;;;3.00;63.00;;;;;;4146712;28;19917;-84
2023/05/03 03:16:50;;;;;;;;;;;2.90;62.80;;;;;;4148693;28;19988;-84
2023/05/03 03:18:50;;;;;;;;;;;2.90;62.90;;;;;;4147055;28;20012;-84
2023/05/03 03:20:51;;;;;;;;;;;2.90;63.00;;;;;;4151712;28;19914;-84
2023/05/03 03:22:51;;;;;;;;;;;2.90;63.10;;;;;;4146686;28;19914;-84
2023/05/03 03:24:52;;;;;;;;;;;2.90;63.10;;;;;;4152854;28;19933;-84
2023/05/03 03:26:52;;;;;;;;;;;3.00;63.30;;;;;;4145767;28;19933;-84
2023/05/03 03:28:53;;;;;;;;;;;3.00;63.40;;;;;;4151633;28;20054;-84
2023/05/03 03:30:53;;;;;;;;;;;3.00;63.60;;;;;;4144337;28;20414;-84
2023/05/03 03:32:54;;;;;;;;;;;3.00;63.60;;;;;;4145418;28;20024;-83
2023/05/03 03:34:54;;;;;;;;;;;3.00;63.60;;;;;;4142968;28;19914;-84
2023/05/03 03:36:55;;;;;;;;;;;3.00;63.60;;;;;;4144713;28;19914;-84
2023/05/03 03:38:55;;;;;;;;;;;3.00;63.60;;;;;;4145222;28;19921;-84
2023/05/03 03:40:56;;;;;;;;;;;3.00;63.80;;;;;;4153448;28;19918;-84
2023/05/03 03:42:57;;;;;;;;;;;3.00;63.90;;;;;;4150595;28;19917;-84
2023/05/03 03:44:57;;;;;;;;;;;3.10;64.30;;;;;;4146639;28;19924;-83
2023/05/03 03:46:58;;;;;;;;;;;3.10;64.40;;;;;;4140317;28;19918;-83
2023/05/03 03:48:58;;;;;;;;;;;3.10;64.40;;;;;;4146109;28;19922;-83
2023/05/03 03:50:59;;;;;;;;;;;3.10;64.30;;;;;;4145051;28;19913;-84
2023/05/03 03:52:59;;;;;;;;;;;3.10;64.40;;;;;;4145051;28;19990;-84
2023/05/03 03:55:00;;;;;;;;;;;3.00;64.20;;;;;;4153882;28;19992;-84
2023/05/03 03:57:03;;;;;;;;;;;3.00;64.20;;;;;;4142669;28;19920;-84
2023/05/03 03:59:04;;;;;;;;;;;3.10;64.00;;;;;;4131307;28;19914;-84
2023/05/03 04:01:05;;;;;;;;;;;3.10;64.10;;;;;;4163135;28;19921;-84
2023/05/03 04:03:05;;;;;;;;;;;3.00;64.00;;;;;;4141957;28;20440;-83
2023/05/03 04:05:06;;;;;;;;;;;3.10;64.10;;;;;;4144340;28;20569;-84
2023/05/03 04:07:08;;;;;;;;;;;3.10;64.10;;;;;;4145750;28;19984;-85
2023/05/03 04:09:09;;;;;;;;;;;3.10;64.30;;;;;;4148689;28;20395;-84
2023/05/03 04:11:11;;;;;;;;;;;3.10;64.40;;;;;;4146956;28;19924;-83
2023/05/03 04:13:31;;;;;;;;;;;3.10;64.40;;;;;;4144559;28;19914;-85
2023/05/03 04:15:55;;;;;;;;;;;3.10;64.50;;;;;;4147195;28;19930;-84
2023/05/03 04:18:16;;;;;;;;;;;3.10;64.50;;;;;;4138537;28;19937;-85
2023/05/03 04:20:37;;;;;;;;;;;3.10;64.60;;;;;;4150382;28;20387;-84
2023/05/03 04:22:57;;;;;;;;;;;3.10;65.00;;;;;;4144395;28;20371;-84
2023/05/03 04:25:00;;;;;;;;;;;3.20;65.70;;;;;;4147185;28;19937;-84
2023/05/03 04:27:03;;;;;;;;;;;3.20;66.10;;;;;;4141448;28;19957;-85
2023/05/03 04:29:05;;;;;;;;;;;3.20;66.50;;;;;;4124618;28;19921;-84
2023/05/03 04:31:05;;;;;;;;;;;3.30;67.20;;;;;;4132892;28;19918;-84
2023/05/03 04:33:07;;;;;;;;;;;3.30;67.60;;;;;;4126243;28;20196;-83
2023/05/03 04:35:09;;;;;;;;;;;3.40;68.40;;;;;;4126822;28;20008;-84
2023/05/03 04:37:10;;;;;;;;;;;3.50;68.70;;;;;;4131545;28;19922;-85
2023/05/03 04:39:11;;;;;;;;;;;3.60;69.20;;;;;;4126974;28;20001;-84
2023/05/03 04:41:12;;;;;;;;;;;3.60;69.20;;;;;;4140647;28;20548;-82
2023/05/03 04:43:13;;;;;;;;;;;3.80;69.60;;;;;;4146144;28;20465;-85
2023/05/03 04:45:13;;;;;;;;;;;3.90;70.00;;;;;;4130821;28;19910;-84
2023/05/03 04:47:14;;;;;;;;;;;4.00;70.30;;;;;;4143241;28;19917;-85
2023/05/03 04:49:16;;;;;;;;;;;4.10;70.70;;;;;;4119758;28;19917;-83
2023/05/03 04:51:17;;;;;;;;;;;4.20;71.20;;;;;;4150573;28;19909;-83
2023/05/03 04:53:17;;;;;;;;;;;4.40;71.60;;;;;;4129548;28;20031;-84
2023/05/03 04:55:18;;;;;;;;;;;4.50;72.20;;;;;;4123816;28;19930;-84
2023/05/03 04:57:19;;;;;;;;;;;4.60;72.50;;;;;;4129110;28;20001;-84
2023/05/03 04:59:19;;;;;;;;;;;4.70;72.50;;;;;;4131608;28;19946;-83
2023/05/03 05:01:25;;;;;;;;;;;4.90;72.60;;;;;;4149289;28;19921;-86
2023/05/03 05:03:25;;;;;;;;;;;5.00;72.90;;;;;;4162627;28;19997;-83
2023/05/03 05:05:26;;;;;;;;;;;5.10;72.90;;;;;;4143662;28;19918;-84
2023/05/03 05:07:26;;;;;;;;;;;5.20;73.50;;;;;;4142761;28;19964;-85
2023/05/03 05:09:27;;;;;;;;;;;5.30;73.60;;;;;;4132734;28;19918;-85
2023/05/03 05:11:28;;;;;;;;;;;5.40;73.40;;;;;;4146788;28;19918;-84
2023/05/03 05:13:29;;;;;;;;;;;5.50;73.40;;;;;;4142725;28;19914;-85
2023/05/03 05:15:29;;;;;;;;;;;5.60;73.50;;;;;;4127124;28;19918;-83
2023/05/03 05:17:30;;;;;;;;;;;5.90;73.40;;;;;;4126256;28;19957;-83
2023/05/03 05:19:31;;;;;;;;;;;5.90;73.20;;;;;;4143942;28;19918;-83
2023/05/03 05:21:34;;;;;;;;;;;6.00;73.60;;;;;;4151311;28;20100;-83
2023/05/03 05:23:35;;;;;;;;;;;6.10;73.70;;;;;;4145858;28;20695;-84
2023/05/03 05:25:36;;;;;;;;;;;6.20;74.20;;;;;;4161293;28;19980;-84
2023/05/03 05:27:36;;;;;;;;;;;6.30;74.40;;;;;;4144477;28;19956;-83
2023/05/03 05:29:37;;;;;;;;;;;6.40;73.70;;;;;;4142314;28;19923;-84
2023/05/03 05:31:38;;;;;;;;;;;6.50;73.10;;;;;;4145702;28;19931;-82
2023/05/03 05:33:39;;;;;;;;;;;6.60;72.30;;;;;;4134858;28;19921;-82
2023/05/03 05:35:39;;;;;;;;;;;6.60;70.70;;;;;;4147424;28;19913;-83
2023/05/03 05:37:40;;;;;;;;;;;6.70;70.30;;;;;;4144850;28;19910;-85
2023/05/03 05:39:41;;;;;;;;;;;6.80;69.20;;;;;;4146926;28;19918;-83
2023/05/03 05:41:41;;;;;;;;;;;6.80;69.00;;;;;;4150491;28;20005;-83
2023/05/03 05:43:42;;;;;;;;;;;6.90;68.50;;;;;;4137286;28;19990;-84
2023/05/03 05:45:43;;;;;;;;;;;6.90;68.60;;;;;;4148884;28;19945;-84
2023/05/03 05:47:43;;;;;;;;;;;7.00;68.30;;;;;;4141611;28;20000;-84
2023/05/03 05:49:44;;;;;;;;;;;7.10;67.90;;;;;;4135153;28;19921;-84
2023/05/03 05:51:44;;;;;;;;;;;7.00;67.60;;;;;;4144959;28;19941;-84
2023/05/03 05:53:45;;;;;;;;;;;7.10;67.50;;;;;;4147544;28;19913;-84
2023/05/03 05:55:46;;;;;;;;;;;7.20;67.60;;;;;;4151666;28;19913;-84
2023/05/03 05:57:46;;;;;;;;;;;7.20;67.60;;;;;;4157451;28;19909;-82
2023/05/03 05:59:47;;;;;;;;;;;7.20;67.40;;;;;;4153027;28;19914;-81
2023/05/03 06:01:48;;;;;;;;;;;7.20;67.20;;;;;;4149599;28;20334;-84
2023/05/03 06:03:48;;;;;;;;;;;7.20;67.10;;;;;;4150944;28;19918;-84
2023/05/03 06:05:49;;;;;;;;;;;7.40;67.30;;;;;;4145835;28;19952;-83
2023/05/03 06:07:50;;;;;;;;;;;7.40;67.10;;;;;;4151373;28;19921;-84
2023/05/03 06:09:50;;;;;;;;;;;7.40;67.30;;;;;;4146806;28;19922;-84
2023/05/03 06:11:51;;;;;;;;;;;7.40;67.30;;;;;;4147599;28;19920;-84
2023/05/03 06:13:52;;;;;;;;;;;7.50;66.90;;;;;;4151319;28;19944;-85
2023/05/03 06:15:52;;;;;;;;;;;7.60;66.90;;;;;;4142832;28;19917;-84
2023/05/03 06:17:53;;;;;;;;;;;7.70;66.60;;;;;;4146875;28;19925;-84
2023/05/03 06:19:54;;;;;;;;;;;7.60;66.30;;;;;;4154785;28;20354;-84
2023/05/03 06:21:55;;;;;;;;;;;7.80;66.50;;;;;;4148589;28;19924;-84
2023/05/03 06:23:57;;;;;;;;;;;7.70;66.30;;;;;;4136573;28;20440;-84
2023/05/03 06:25:57;;;;;;;;;;;7.80;66.30;;;;;;4149802;28;19913;-83
2023/05/03 06:27:58;;;;;;;;;;;7.90;66.20;;;;;;4146672;28;19914;-84
2023/05/03 06:29:58;;;;;;;;;;;7.90;65.90;;;;;;4149061;28;19917;-84
2023/05/03 06:31:59;;;;;;;;;;;7.90;65.80;;;;;;4147586;28;19917;-83
2023/05/03 06:34:00;;;;;;;;;;;8.00;65.80;;;;;;4149948;28;19909;-85
2023/05/03 06:36:00;;;;;;;;;;;8.10;65.60;;;;;;4148874;28;19948;-85
2023/05/03 06:38:01;;;;;;;;;;;8.10;65.40;;;;;;4150748;28;20203;-85
2023/05/03 06:40:01;;;;;;;;;;;8.20;65.40;;;;;;4146795;28;19953;-83
2023/05/03 06:42:02;;;;;;;;;;;8.30;65.30;;;;;;4146808;28;19929;-84
2023/05/03 06:44:03;;;;;;;;;;;8.40;65.00;;;;;;4147594;28;19913;-84
2023/05/03 06:46:03;;;;;;;;;;;8.30;64.80;;;;;;4148253;28;20011;-84
2023/05/03 06:48:05;;;;;;;;;;;8.40;64.90;;;;;;4142357;28;20396;-84
2023/05/03 06:50:08;;;;;;;;;;;8.50;65.20;;;;;;4146914;28;19920;-84
2023/05/03 06:52:10;;;;;;;;;;;8.60;64.50;;;;;;4165847;28;19924;-83
2023/05/03 06:54:11;;;;;;;;;;;8.60;64.30;;;;;;4145079;28;19973;-85
2023/05/03 06:56:11;;;;;;;;;;;8.60;63.70;;;;;;4151470;28;19932;-84
2023/05/03 06:58:14;;;;;;;;;;;8.80;63.40;;;;;;4137066;28;19993;-85
2023/05/03 07:00:15;;;;;;;;;;;8.80;62.50;;;;;;4149983;28;20292;-83
2023/05/03 07:02:36;;;;;;;;;;;8.80;62.30;;;;;;4146917;28;19920;-85
2023/05/03 07:04:37;;;;;;;;;;;8.90;61.60;;;;;;4137807;28;20098;-85
2023/05/03 07:06:38;;;;;;;;;;;8.80;61.40;;;;;;4147793;28;20004;-85
2023/05/03 07:08:58;;;;;;;;;;;8.80;61.10;;;;;;4152365;28;19918;-84
2023/05/03 07:11:22;;;;;;;;;;;8.90;61.00;;;;;;4147280;28;20005;-84
2023/05/03 07:13:43;;;;;;;;;;;8.90;61.30;;;;;;4147286;28;19981;-84
2023/05/03 07:16:04;;;;;;;;;;;8.90;61.40;;;;;;4144899;28;20205;-84
2023/05/03 07:18:24;;;;;;;;;;;8.90;61.30;;;;;;4149196;28;20424;-86
2023/05/03 07:20:45;;;;;;;;;;;9.00;61.00;;;;;;4150818;28;20362;-85
2023/05/03 07:23:06;;;;;;;;;;;9.10;61.00;;;;;;4150481;28;19941;-85
2023/05/03 07:25:26;;;;;;;;;;;9.00;60.50;;;;;;4154107;28;20373;-85
2023/05/03 07:27:47;;;;;;;;;;;9.10;60.50;;;;;;4147405;28;20571;-84
2023/05/03 07:30:07;;;;;;;;;;;9.20;60.60;;;;;;4147457;28;19941;-86
2023/05/03 07:32:28;;;;;;;;;;;9.10;59.90;;;;;;4147336;28;19941;-85
2023/05/03 07:34:49;;;;;;;;;;;9.20;59.60;;;;;;4149619;28;19918;-84
2023/05/03 07:37:09;;;;;;;;;;;9.10;58.90;;;;;;4151536;28;19919;-85
2023/05/03 07:39:30;;;;;;;;;;;9.30;58.30;;;;;;4147659;28;20348;-86
2023/05/03 07:41:31;;;;;;;;;;;9.10;58.10;;;;;;4138076;28;19925;-84
2023/05/03 07:43:31;;;;;;;;;;;9.10;57.40;;;;;;4149952;28;20295;-82
2023/05/03 07:45:32;;;;;;;;;;;9.10;57.30;;;;;;4147613;28;19957;-84
2023/05/03 07:47:36;;;;;;;;;;;9.10;57.10;;;;;;4144942;28;19922;-84
2023/05/03 07:49:37;;;;;;;;;;;9.30;57.30;;;;;;4147716;28;20559;-84
2023/05/03 07:51:37;;;;;;;;;;;9.10;56.80;;;;;;4145551;28;19913;-84
2023/05/03 07:53:39;;;;;;;;;;;9.10;56.40;;;;;;4150283;28;19913;-84
2023/05/03 07:55:40;;;;;;;;;;;9.10;56.60;;;;;;4147671;28;20525;-84
2023/05/03 07:57:41;;;;;;;;;;;9.10;57.00;;;;;;4146650;28;20453;-85
2023/05/03 07:59:42;;;;;;;;;;;9.10;57.40;;;;;;4148650;28;19921;-85
2023/05/03 08:01:42;;;;;;;;;;;9.20;57.50;;;;;;4147618;28;20005;-84
2023/05/03 08:03:43;;;;;;;;;;;9.20;57.70;;;;;;4128962;28;19949;-83
2023/05/03 08:05:45;;;;;;;;;;;9.10;57.40;;;;;;4146142;28;19918;-84
2023/05/03 08:07:45;;;;;;;;;;;9.20;57.50;;;;;;4146182;28;20383;-85
2023/05/03 08:09:47;;;;;;;;;;;9.30;57.40;;;;;;4149043;28;19917;-84
2023/05/03 08:11:48;;;;;;;;;;;9.30;56.80;;;;;;4147484;28;20368;-84
2023/05/03 08:13:48;;;;;;;;;;;9.30;57.00;;;;;;4148797;28;19922;-84
2023/05/03 08:15:49;;;;;;;;;;;9.30;57.30;;;;;;4148583;28;19920;-84
2023/05/03 08:17:50;;;;;;;;;;;9.40;57.20;;;;;;4147652;28;19910;-86
2023/05/03 08:19:51;;;;;;;;;;;9.40;56.80;;;;;;4145102;28;19928;-85
2023/05/03 08:21:53;;;;;;;;;;;9.40;56.00;;;;;;4150155;28;19913;-84
2023/05/03 08:23:53;;;;;;;;;;;9.30;56.30;;;;;;4134048;28;19920;-85
2023/05/03 08:25:55;;;;;;;;;;;9.40;56.30;;;;;;4160694;28;20434;-84
2023/05/03 08:27:56;;;;;;;;;;;9.40;56.10;;;;;;4129054;28;19921;-84
2023/05/03 08:29:56;;;;;;;;;;;9.50;56.60;;;;;;4148125;28;19921;-84
2023/05/03 08:31:57;;;;;;;;;;;9.50;56.50;;;;;;4146703;28;19918;-84
2023/05/03 08:33:58;;;;;;;;;;;9.50;56.00;;;;;;4146596;28;19925;-84
2023/05/03 08:35:58;;;;;;;;;;;9.70;55.20;;;;;;4153081;28;19920;-86
2023/05/03 08:37:59;;;;;;;;;;;9.70;55.40;;;;;;4147052;28;19972;-84
2023/05/03 08:40:00;;;;;;;;;;;9.70;55.10;;;;;;4146148;28;20009;-84
2023/05/03 08:42:05;;;;;;;;;;;9.80;54.70;;;;;;4150366;28;19913;-83
2023/05/03 08:44:06;;;;;;;;;;;9.90;54.60;;;;;;4148837;28;20371;-84
2023/05/03 08:46:09;;;;;;;;;;;10.00;55.00;;;;;;4146981;28;19976;-83
2023/05/03 08:48:22;;;;;;;;;;;10.10;54.80;;;;;;4162470;23;19936;-83
2023/05/03 08:50:27;;;;;;;;;;;10.10;54.00;;;;;;4129160;28;19921;-83
2023/05/03 08:52:44;;;;;;;;;;;10.20;53.60;;;;;;4124253;28;20076;-84
2023/05/03 08:54:53;;;;;;;;;;;10.30;53.50;;;;;;4143994;28;20256;-84
2023/05/03 08:57:13;;;;;;;;;;;10.30;52.80;;;;;;4140811;28;19914;-85
2023/05/03 08:59:16;;;;;;;;;;;10.30;52.30;;;;;;4123032;28;19918;-84
2023/05/03 09:01:22;;;;;;;;;;;10.40;53.30;;;;;;4137222;28;20561;-84
2023/05/03 09:03:24;;;;;;;;;;;10.40;53.10;;;;;;4124659;28;20379;-86
2023/05/03 09:05:33;;;;;;;;;;;10.50;53.60;;;;;;4145748;28;20371;-84
2023/05/03 09:07:42;;;;;;;;;;;10.40;53.50;;;;;;4141972;28;20406;-84
2023/05/03 09:09:56;;;;;;;;;;;10.40;52.80;;;;;;4141796;28;20000;-84
2023/05/03 09:12:07;;;;;;;;;;;10.40;52.70;;;;;;4127860;28;19989;-84
2023/05/03 09:14:10;;;;;;;;;;;10.30;52.20;;;;;;4127356;28;19918;-84
2023/05/03 09:16:21;;;;;;;;;;;10.40;52.40;;;;;;4139787;28;19929;-84
2023/05/03 09:18:25;;;;;;;;;;;10.40;52.10;;;;;;4127211;28;19914;-84
2023/05/03 09:20:40;;;;;;;;;;;10.40;51.50;;;;;;4141456;28;19921;-84
2023/05/03 09:22:49;;;;;;;;;;;10.40;51.60;;;;;;4135015;28;20011;-85
2023/05/03 09:25:08;;;;;;;;;;;10.40;51.50;;;;;;4127375;28;19913;-84
2023/05/03 09:27:31;;;;;;;;;;;10.40;51.90;;;;;;4138137;28;20343;-84
2023/05/03 09:30:23;;;;;;;;;;;10.40;51.40;;;;;;4140191;28;20572;-84
2023/05/03 09:32:49;;;;;;;;;;;10.40;50.70;;;;;;4138601;28;19960;-84
2023/05/03 09:35:12;;;;;;;;;;;10.50;50.00;;;;;;4151544;28;20311;-83
2023/05/03 09:37:42;;;;;;;;;;;10.40;50.30;;;;;;4141768;28;20344;-85
2023/05/03 09:40:16;;;;;;;;;;;10.40;49.20;;;;;;4142014;28;19940;-83
2023/05/03 09:42:39;;;;;;;;;;;10.40;49.60;;;;;;4131649;28;19917;-85
2023/05/03 09:45:13;;;;;;;;;;;10.40;49.90;;;;;;4137985;28;19918;-84
2023/05/03 09:47:51;;;;;;;;;;;10.50;49.60;;;;;;4137377;28;20303;-85
2023/05/03 09:50:32;;;;;;;;;;;10.50;50.10;;;;;;4141993;28;20365;-84
2023/05/03 09:52:42;;;;;;;;;;;10.70;50.00;;;;;;4124969;28;19918;-84
2023/05/03 09:54:58;;;;;;;;;;;10.80;50.40;;;;;;4136294;28;19921;-85
2023/05/03 09:56:59;;;;;;;;;;;10.80;50.70;;;;;;4140851;28;19952;-84
2023/05/03 09:59:11;;;;;;;;;;;10.90;50.20;;;;;;4127285;28;19910;-84
2023/05/03 10:01:38;;;;;;;;;;;;;;;;;;;;;
2023/05/03 10:06:44;;;;;;;;;;;11.10;50.50;;;;;;4150363;28;19913;-84
2023/05/03 10:08:53;;;;;;;;;;;11.20;49.60;;;;;;4128987;28;19918;-85
2023/05/03 10:11:03;;;;;;;;;;;11.30;49.60;;;;;;4153630;28;20369;-84
2023/05/03 10:13:11;;;;;;;;;;;11.30;49.20;;;;;;4127768;28;20021;-85
2023/05/03 10:15:35;;;;;;;;;;;11.40;49.20;;;;;;4134563;28;20008;-85
2023/05/03 10:18:13;;;;;;;;;;;11.40;49.00;;;;;;4141959;28;20283;-84
2023/05/03 10:20:34;;;;;;;;;;;11.50;49.60;;;;;;4123951;28;19985;-84
2023/05/03 10:23:02;;;;;;;;;;;11.50;49.70;;;;;;4127029;28;20763;-84
2023/05/03 10:25:11;;;;;;;;;;;11.50;49.50;;;;;;4127823;28;20555;-83
2023/05/03 10:27:31;;;;;;;;;;;11.50;49.00;;;;;;4133673;28;19924;-84
2023/05/03 10:29:58;;;;;;;;;;;11.50;49.00;;;;;;4137743;28;20468;-84
2023/05/03 10:32:19;;;;;;;;;;;11.50;49.30;;;;;;4141994;28;20031;-85
2023/05/03 10:34:38;;;;;;;;;;;11.60;49.90;;;;;;4141055;28;20342;-84
2023/05/03 10:36:49;;;;;;;;;;;11.50;49.90;;;;;;4154970;28;19909;-87
2023/05/03 10:39:15;;;;;;;;;;;11.50;49.70;;;;;;4135355;28;19914;-84
2023/05/03 10:41:23;;;;;;;;;;;11.50;49.70;;;;;;4139538;28;19987;-86
2023/05/03 10:43:49;;;;;;;;;;;11.60;50.00;;;;;;4136406;28;19918;-84
2023/05/03 10:46:20;;;;;;;;;;;11.50;49.90;;;;;;4152234;28;19982;-85
2023/05/03 10:48:24;;;;;;;;;;;11.60;49.90;;;;;;4150579;28;19920;-85
2023/05/03 10:50:25;;;;;;;;;;;11.60;48.80;;;;;;4133394;28;19965;-85
2023/05/03 10:52:42;;;;;;;;;;;11.60;49.50;;;;;;4132775;28;19918;-84
2023/05/03 10:54:51;;;;;;;;;;;11.60;48.30;;;;;;4142770;28;19921;-84
2023/05/03 10:57:17;;;;;;;;;;;11.80;49.20;;;;;;4140392;28;19910;-84
2023/05/03 10:59:52;;;;;;;;;;;11.80;48.00;;;;;;4128173;28;19918;-85
2023/05/03 11:02:21;;;;;;;;;;;11.80;48.30;;;;;;4143430;28;19918;-83
2023/05/03 11:04:54;;;;;;;;;;;11.90;47.70;;;;;;4143450;28;19980;-84
2023/05/03 11:07:23;;;;;;;;;;;12.00;47.50;;;;;;4144583;28;19960;-84
2023/05/03 11:09:46;;;;;;;;;;;12.00;47.70;;;;;;4136684;28;19922;-84
2023/05/03 11:12:12;;;;;;;;;;;12.10;47.90;;;;;;4146123;28;19914;-83
2023/05/03 11:14:38;;;;;;;;;;;12.10;47.40;;;;;;4149909;28;19956;-84
2023/05/03 11:16:59;;;;;;;;;;;12.10;48.00;;;;;;4139066;28;19936;-84
2023/05/03 11:19:20;;;;;;;;;;;12.10;48.60;;;;;;4141947;28;20024;-83
2023/05/03 11:21:41;;;;;;;;;;;12.00;48.60;;;;;;4140245;28;19991;-84
2023/05/03 11:24:08;;;;;;;;;;;11.90;48.60;;;;;;4143472;28;19921;-83
2023/05/03 11:26:33;;;;;;;;;;;11.90;49.00;;;;;;4140256;28;19913;-83
2023/05/03 11:28:54;;;;;;;;;;;11.90;48.60;;;;;;4166629;23;19926;-84
2023/05/03 11:31:15;;;;;;;;;;;11.70;48.40;;;;;;4147101;28;19914;-85
2023/05/03 11:33:41;;;;;;;;;;;11.60;48.10;;;;;;4145128;28;19918;-83
2023/05/03 11:36:08;;;;;;;;;;;11.70;48.60;;;;;;4140552;28;20437;-84
2023/05/03 11:38:55;;;;;;;;;;;11.60;48.60;;;;;;4140906;28;19939;-86
2023/05/03 11:41:35;;;;;;;;;;;11.60;48.80;;;;;;4077448;29;20397;-85
2023/05/03 11:46:37;;;;;;;;;;;11.60;49.10;;;;;;4078757;29;19965;-85
2023/05/03 11:48:39;;;;;;;;;;;11.60;48.80;;;;;;4077551;29;19970;-85
2023/05/03 11:50:58;;;;;;;;;;;11.70;49.30;;;;;;4060256;29;20297;-86
2023/05/03 11:53:04;;;;;;;;;;;11.70;49.00;;;;;;4076384;29;20436;-86
2023/05/03 11:55:07;;;;;;;;;;;11.80;49.20;;;;;;4060830;29;19954;-86
2023/05/03 11:57:11;;;;;;;;;;;11.80;48.60;;;;;;4080600;29;19958;-86
2023/05/03 11:59:35;;;;;;;;;;;11.90;48.20;;;;;;4062151;29;20783;-86
2023/05/03 12:01:48;;;;;;;;;;;12.00;48.00;;;;;;4061456;29;19919;-86
2023/05/03 12:04:19;;;;;;;;;;;12.10;47.00;;;;;;4061211;29;19915;-85
2023/05/03 12:09:24;;;;;;;;;;;12.20;46.30;;;;;;4006800;29;20039;-85
2023/05/03 12:11:48;;;;;;;;;;;12.20;47.10;;;;;;4002643;29;19959;-85
2023/05/03 12:14:09;;;;;;;;;;;12.30;47.20;;;;;;4000476;29;20607;-85
2023/05/03 12:16:45;;;;;;;;;;;12.40;47.10;;;;;;4005659;29;20039;-85
2023/05/03 12:19:01;;;;;;;;;;;12.30;46.70;;;;;;4029502;29;20414;-85
2023/05/03 12:21:27;;;;;;;;;;;12.30;47.00;;;;;;4035748;29;19923;-85
2023/05/03 12:23:49;;;;;;;;;;;12.40;47.50;;;;;;4030589;29;19927;-84
2023/05/03 12:26:09;;;;;;;;;;;12.30;47.70;;;;;;4032170;29;19942;-84
2023/05/03 12:28:33;;;;;;;;;;;12.30;47.70;;;;;;4036162;29;19990;-86
2023/05/03 12:30:59;;;;;;;;;;;12.30;47.70;;;;;;4047928;29;19916;-86
2023/05/03 12:33:25;;;;;;;;;;;12.30;47.30;;;;;;4042088;29;19919;-85
2023/05/03 12:35:55;;;;;;;;;;;12.30;47.20;;;;;;4041510;29;19920;-85
2023/05/03 12:38:27;;;;;;;;;;;12.20;47.30;;;;;;4111663;28;19976;-86
2023/05/03 12:43:40;;;;;;;;;;;12.20;47.80;;;;;;4111141;28;20089;-85
2023/05/03 12:46:10;;;;;;;;;;;12.20;47.50;;;;;;4117174;28;19956;-84
2023/05/03 12:48:26;;;;;;;;;;;12.10;47.50;;;;;;4125922;28;20343;-84
2023/05/03 12:50:56;;;;;;;;;;;12.00;47.80;;;;;;4131463;28;19921;-85
2023/05/03 12:53:03;;;;;;;;;;;12.00;47.60;;;;;;4126964;28;20387;-85
2023/05/03 12:55:08;;;;;;;;;;;12.10;47.70;;;;;;4112607;28;19922;-85
2023/05/03 12:57:27;;;;;;;;;;;12.10;47.70;;;;;;4129267;28;19929;-85
2023/05/03 12:59:35;;;;;;;;;;;12.10;47.60;;;;;;4113451;28;19937;-87
2023/05/03 13:01:50;;;;;;;;;;;12.20;47.80;;;;;;4126151;28;19925;-85
2023/05/03 13:04:11;;;;;;;;;;;12.20;47.60;;;;;;4128087;28;19925;-84
2023/05/03 13:06:39;;;;;;;;;;;12.20;47.60;;;;;;4129737;28;19957;-85
2023/05/03 13:09:16;;;;;;;;;;;12.20;47.80;;;;;;4126548;28;19918;-86
2023/05/03 13:11:37;;;;;;;;;;;12.30;47.60;;;;;;4137943;28;20064;-85
2023/05/03 13:14:03;;;;;;;;;;;12.40;47.80;;;;;;4130470;28;19937;-84